Time;durP1;ratioP1;P1;durP2;ratioP2;P2;SDS_P1;SDS_P2;PMS_P1;PMS_P2;Temp;Humidity;BMP_temperature;BMP_pressure;BME280_temperature;BME280_humidity;BME280_pressure;Samples;Min_cycle;Max_cycle;Signal;HPM_P1;HPM_P2
2022/08/01 00:02:17;;;;;;;12.65;8.80;;;;;;;;;;2628287;52;21620;-76
2022/08/01 00:04:44;;;;;;;11.98;9.73;;;;;;;;;;2375217;56;21043;-78
2022/08/01 00:07:11;;;;;;;10.88;8.80;;;;;;;;;;2373796;56;21027;-74
2022/08/01 00:09:38;;;;;;;9.68;8.68;;;;;;;;;;2375077;56;21042;-78
2022/08/01 00:12:06;;;;;;;10.70;9.60;;;;;;;;;;2627909;52;21035;-75
2022/08/01 00:14:33;;;;;;;10.90;8.80;;;;;;;;;;2374412;56;21684;-78
2022/08/01 00:17:00;;;;;;;11.98;8.30;;;;;;;;;;2374399;56;21034;-78
2022/08/01 00:19:27;;;;;;;9.95;8.70;;;;;;;;;;2374559;56;21031;-77
2022/08/01 00:21:54;;;;;;;11.77;9.02;;;;;;;;;;2374903;56;21123;-78
2022/08/01 00:24:21;;;;;;;11.18;9.32;;;;;;;;;;2628434;52;21518;-78
2022/08/01 00:26:48;;;;;;;12.50;9.68;;;;;;;;;;2374428;56;21632;-78
2022/08/01 00:29:15;;;;;;;13.80;10.50;;;;;;;;;;2374777;56;21055;-78
2022/08/01 00:31:42;;;;;;;12.35;10.77;;;;;;;;;;2628111;52;21437;-78
2022/08/01 00:34:09;;;;;;;12.00;10.05;;;;;;;;;;2374814;56;21047;-79
2022/08/01 00:36:37;;;;;;;11.32;9.27;;;;;;;;;;2374552;56;21554;-79
2022/08/01 00:39:04;;;;;;;14.95;10.85;;;;;;;;;;2375444;56;21114;-77
2022/08/01 00:41:31;;;;;;;12.70;10.02;;;;;;;;;;2629034;52;21035;-79
2022/08/01 00:43:58;;;;;;;12.18;9.80;;;;;;;;;;2628896;52;21444;-78
2022/08/01 00:46:25;;;;;;;12.00;9.90;;;;;;;;;;2374526;56;21173;-79
2022/08/01 00:48:53;;;;;;;10.52;9.38;;;;;;;;;;2628296;52;21051;-78
2022/08/01 00:51:20;;;;;;;10.43;8.35;;;;;;;;;;2375693;56;21074;-79
2022/08/01 00:53:47;;;;;;;14.93;10.18;;;;;;;;;;2375600;56;21054;-79
2022/08/01 00:56:14;;;;;;;11.60;8.55;;;;;;;;;;2375094;56;21031;-79
2022/08/01 00:58:41;;;;;;;15.35;11.15;;;;;;;;;;2374827;56;21042;-78
2022/08/01 01:01:08;;;;;;;15.02;10.10;;;;;;;;;;2629201;52;21019;-79
2022/08/01 01:03:35;;;;;;;12.40;10.80;;;;;;;;;;2628040;52;21130;-78
2022/08/01 01:06:08;;;;;;;15.27;11.12;;;;;;;;;;2374224;56;21042;-78
2022/08/01 01:08:40;;;;;;;17.92;12.35;;;;;;;;;;2375035;56;21035;-78
2022/08/01 01:11:11;;;;;;;17.17;11.75;;;;;;;;;;2375370;56;21051;-79
2022/08/01 01:13:39;;;;;;;13.35;10.52;;;;;;;;;;2375520;56;21103;-78
2022/08/01 01:16:10;;;;;;;13.93;10.90;;;;;;;;;;2373591;56;21152;-78
2022/08/01 01:18:39;;;;;;;17.35;11.07;;;;;;;;;;2374770;56;21019;-78
2022/08/01 01:21:12;;;;;;;12.13;10.70;;;;;;;;;;2628583;52;21094;-77
2022/08/01 01:23:45;;;;;;;14.85;11.55;;;;;;;;;;2374689;56;21106;-78
2022/08/01 01:26:22;;;;;;;13.30;9.98;;;;;;;;;;2374640;56;21050;-77
2022/08/01 01:28:58;;;;;;;15.60;11.12;;;;;;;;;;2374832;56;21035;-78
2022/08/01 01:31:27;;;;;;;11.73;8.73;;;;;;;;;;2374083;56;21498;-78
2022/08/01 01:33:55;;;;;;;11.75;9.50;;;;;;;;;;2374986;56;21047;-78
2022/08/01 01:36:22;;;;;;;12.68;9.95;;;;;;;;;;2627010;52;21055;-75
2022/08/01 01:38:50;;;;;;;12.95;9.40;;;;;;;;;;2374385;56;21158;-79
2022/08/01 01:41:18;;;;;;;14.57;10.18;;;;;;;;;;2374332;56;21102;-75
2022/08/01 01:43:46;;;;;;;14.23;10.75;;;;;;;;;;2628387;52;21086;-78
2022/08/01 01:46:16;;;;;;;14.82;11.27;;;;;;;;;;2373927;56;21047;-78
2022/08/01 01:48:44;;;;;;;16.05;10.80;;;;;;;;;;2374866;56;21051;-78
2022/08/01 01:51:13;;;;;;;13.18;9.80;;;;;;;;;;2375006;56;21027;-77
2022/08/01 01:53:40;;;;;;;14.73;10.38;;;;;;;;;;2374442;56;21075;-77
2022/08/01 01:56:09;;;;;;;14.38;10.93;;;;;;;;;;2374553;56;21038;-78
2022/08/01 01:58:39;;;;;;;15.80;10.98;;;;;;;;;;2627762;52;21122;-76
2022/08/01 02:01:07;;;;;;;16.27;10.80;;;;;;;;;;2373931;56;21042;-78
2022/08/01 02:03:36;;;;;;;17.25;10.80;;;;;;;;;;2375078;56;21035;-78
2022/08/01 02:06:04;;;;;;;17.17;10.20;;;;;;;;;;2627493;52;21066;-75
2022/08/01 02:08:32;;;;;;;13.60;9.90;;;;;;;;;;2375207;56;21051;-75
2022/08/01 02:13:58;;;;;;;13.40;10.20;;;;;;;;;;2353014;56;21110;-77
2022/08/01 02:16:27;;;;;;;21.00;11.85;;;;;;;;;;2373399;56;21091;-78
2022/08/01 02:18:54;;;;;;;18.37;12.32;;;;;;;;;;2374763;56;21055;-74
2022/08/01 02:21:26;;;;;;;14.13;10.05;;;;;;;;;;2374047;56;21526;-79
2022/08/01 02:23:53;;;;;;;13.13;9.77;;;;;;;;;;2628296;52;21035;-77
2022/08/01 02:26:22;;;;;;;13.40;9.20;;;;;;;;;;2373924;56;21051;-75
2022/08/01 02:28:51;;;;;;;17.30;10.88;;;;;;;;;;2375096;56;21142;-77
2022/08/01 02:31:21;;;;;;;16.52;10.55;;;;;;;;;;2374775;56;21035;-79
2022/08/01 02:33:51;;;;;;;16.17;10.23;;;;;;;;;;2629036;52;21043;-78
2022/08/01 02:36:19;;;;;;;13.50;9.07;;;;;;;;;;2626785;52;21703;-78
2022/08/01 02:38:46;;;;;;;14.02;9.25;;;;;;;;;;2374982;56;21570;-78
2022/08/01 02:41:17;;;;;;;12.50;8.63;;;;;;;;;;2628276;52;21533;-77
2022/08/01 02:43:48;;;;;;;15.93;10.48;;;;;;;;;;2374984;56;21042;-78
2022/08/01 02:46:18;;;;;;;10.77;8.05;;;;;;;;;;2374227;56;21066;-78
2022/08/01 02:48:47;;;;;;;12.40;9.45;;;;;;;;;;2627835;52;21114;-78
2022/08/01 02:51:16;;;;;;;9.85;8.20;;;;;;;;;;2627759;52;21062;-78
2022/08/01 02:53:43;;;;;;;14.02;9.20;;;;;;;;;;2627120;52;21086;-78
2022/08/01 02:56:11;;;;;;;16.08;9.13;;;;;;;;;;2627602;52;21090;-75
2022/08/01 02:58:39;;;;;;;11.30;7.15;;;;;;;;;;2375448;56;21092;-78
2022/08/01 03:01:07;;;;;;;10.95;8.18;;;;;;;;;;2375163;56;21039;-78
2022/08/01 03:03:34;;;;;;;10.15;7.62;;;;;;;;;;2374885;56;21134;-76
2022/08/01 03:06:02;;;;;;;12.23;7.65;;;;;;;;;;2626907;52;21118;-78
2022/08/01 03:08:30;;;;;;;12.55;8.20;;;;;;;;;;2375325;56;21109;-78
2022/08/01 03:10:58;;;;;;;10.70;8.15;;;;;;;;;;2628794;52;21047;-78
2022/08/01 03:13:26;;;;;;;11.77;8.32;;;;;;;;;;2374765;56;21043;-76
2022/08/01 03:15:54;;;;;;;12.63;9.15;;;;;;;;;;2374129;56;21055;-79
2022/08/01 03:18:23;;;;;;;9.00;7.10;;;;;;;;;;2628837;52;21051;-78
2022/08/01 03:20:51;;;;;;;12.75;8.02;;;;;;;;;;2375216;56;21043;-78
2022/08/01 03:23:19;;;;;;;12.20;8.10;;;;;;;;;;2373936;56;21114;-78
2022/08/01 03:25:47;;;;;;;7.87;6.95;;;;;;;;;;2627872;52;21233;-77
2022/08/01 03:28:14;;;;;;;9.30;7.10;;;;;;;;;;2626946;52;21058;-78
2022/08/01 03:30:43;;;;;;;9.35;7.30;;;;;;;;;;2373033;56;21626;-77
2022/08/01 03:33:11;;;;;;;11.57;8.50;;;;;;;;;;2374800;56;21597;-78
2022/08/01 03:35:40;;;;;;;10.65;7.57;;;;;;;;;;2374190;56;21122;-79
2022/08/01 03:38:10;;;;;;;9.32;7.22;;;;;;;;;;2628853;52;21046;-76
2022/08/01 03:40:39;;;;;;;12.65;8.18;;;;;;;;;;2375674;56;21110;-78
2022/08/01 03:43:08;;;;;;;9.15;7.10;;;;;;;;;;2627996;52;21047;-78
2022/08/01 03:45:38;;;;;;;9.07;7.05;;;;;;;;;;2374884;56;21357;-75
2022/08/01 03:48:07;;;;;;;11.20;7.78;;;;;;;;;;2628273;52;21570;-78
2022/08/01 03:50:36;;;;;;;9.85;7.32;;;;;;;;;;2629007;52;21111;-78
2022/08/01 03:53:04;;;;;;;8.63;7.22;;;;;;;;;;2629109;52;21042;-78
2022/08/01 03:55:32;;;;;;;10.77;7.25;;;;;;;;;;2627689;52;21067;-79
2022/08/01 03:58:00;;;;;;;10.93;7.90;;;;;;;;;;2628735;52;21088;-78
2022/08/01 04:00:28;;;;;;;10.82;7.55;;;;;;;;;;2374252;56;21074;-78
2022/08/01 04:02:56;;;;;;;13.50;9.93;;;;;;;;;;2374792;56;21122;-78
2022/08/01 04:05:23;;;;;;;15.77;8.27;;;;;;;;;;2374700;56;21378;-77
2022/08/01 04:07:55;;;;;;;9.95;8.25;;;;;;;;;;2375131;56;21094;-79
2022/08/01 04:10:22;;;;;;;10.48;8.00;;;;;;;;;;2375489;56;21035;-78
2022/08/01 04:12:50;;;;;;;10.38;7.43;;;;;;;;;;2374810;56;21673;-79
2022/08/01 04:15:17;;;;;;;11.48;8.13;;;;;;;;;;2374566;56;21114;-77
2022/08/01 04:17:44;;;;;;;12.07;8.05;;;;;;;;;;2373672;56;21113;-78
2022/08/01 04:20:12;;;;;;;12.05;7.62;;;;;;;;;;2628183;52;21074;-78
2022/08/01 04:22:39;;;;;;;13.02;7.85;;;;;;;;;;2374828;56;21047;-78
2022/08/01 04:25:12;;;;;;;8.45;7.12;;;;;;;;;;2625697;52;21063;-78
2022/08/01 04:27:42;;;;;;;10.80;7.10;;;;;;;;;;2624145;52;21047;-78
2022/08/01 04:30:11;;;;;;;9.75;6.87;;;;;;;;;;2627179;52;21173;-77
2022/08/01 04:32:39;;;;;;;10.10;6.55;;;;;;;;;;2626348;52;21102;-77
2022/08/01 04:35:08;;;;;;;10.52;6.90;;;;;;;;;;2373154;56;21051;-78
2022/08/01 04:37:36;;;;;;;9.55;6.87;;;;;;;;;;2625838;52;21122;-76
2022/08/01 04:40:05;;;;;;;10.82;8.60;;;;;;;;;;2373854;56;21095;-78
2022/08/01 04:42:32;;;;;;;13.93;7.60;;;;;;;;;;2628586;52;21123;-78
2022/08/01 04:44:59;;;;;;;9.15;7.65;;;;;;;;;;2628569;52;21118;-78
2022/08/01 04:47:27;;;;;;;10.77;8.40;;;;;;;;;;2374061;56;21095;-78
2022/08/01 04:49:56;;;;;;;7.60;6.85;;;;;;;;;;2375284;56;21680;-76
2022/08/01 04:52:23;;;;;;;7.87;6.43;;;;;;;;;;2628835;52;21087;-77
2022/08/01 04:54:50;;;;;;;9.20;5.72;;;;;;;;;;2628681;52;21059;-77
2022/08/01 04:57:17;;;;;;;7.35;6.20;;;;;;;;;;2374044;56;21102;-79
2022/08/01 04:59:46;;;;;;;8.20;6.60;;;;;;;;;;2374471;56;21050;-76
2022/08/01 05:02:14;;;;;;;8.50;6.68;;;;;;;;;;2628717;52;21031;-79
2022/08/01 05:04:42;;;;;;;9.35;6.75;;;;;;;;;;2626528;52;21128;-81
2022/08/01 05:07:10;;;;;;;8.60;6.65;;;;;;;;;;2372960;56;21170;-76
2022/08/01 05:09:37;;;;;;;7.85;6.35;;;;;;;;;;2374340;56;21055;-79
2022/08/01 05:12:06;;;;;;;9.88;7.57;;;;;;;;;;2628113;52;21113;-82
2022/08/01 05:14:33;;;;;;;8.70;6.80;;;;;;;;;;2628560;52;21063;-79
2022/08/01 05:17:02;;;;;;;9.68;7.05;;;;;;;;;;2373548;56;21027;-77
2022/08/01 05:19:31;;;;;;;10.73;7.00;;;;;;;;;;2626834;52;21107;-76
2022/08/01 05:22:00;;;;;;;9.63;6.40;;;;;;;;;;2428547;53;72555;-82
2022/08/01 05:24:28;;;;;;;10.90;7.40;;;;;;;;;;2314247;58;21111;-81
2022/08/01 05:26:55;;;;;;;6.30;5.62;;;;;;;;;;2553638;54;21036;-82
2022/08/01 05:29:22;;;;;;;9.15;6.18;;;;;;;;;;2552967;54;21059;-82
2022/08/01 05:31:49;;;;;;;7.78;5.85;;;;;;;;;;2314198;58;21059;-84
2022/08/01 05:34:16;;;;;;;5.03;4.47;;;;;;;;;;2312215;58;21599;-83
2022/08/01 05:36:43;;;;;;;5.37;2.85;;;;;;;;;;2311381;58;21075;-82
2022/08/01 05:39:10;;;;;;;6.35;3.28;;;;;;;;;;2553263;54;21067;-81
2022/08/01 05:41:37;;;;;;;2.97;2.72;;;;;;;;;;2315092;58;21099;-81
2022/08/01 05:44:04;;;;;;;2.90;2.60;;;;;;;;;;2555369;54;21096;-81
2022/08/01 05:46:32;;;;;;;3.78;3.37;;;;;;;;;;2554628;54;21055;-81
2022/08/01 05:48:59;;;;;;;5.45;2.92;;;;;;;;;;2315093;58;21083;-81
2022/08/01 05:51:26;;;;;;;5.85;3.70;;;;;;;;;;2314187;58;21904;-81
2022/08/01 05:53:53;;;;;;;4.55;3.12;;;;;;;;;;2554602;54;21111;-80
2022/08/01 05:56:20;;;;;;;3.22;2.85;;;;;;;;;;2553523;54;21063;-80
2022/08/01 05:58:47;;;;;;;4.28;2.97;;;;;;;;;;2554400;54;21044;-80
2022/08/01 06:01:14;;;;;;;4.95;2.80;;;;;;;;;;2314763;58;21067;-81
2022/08/01 06:03:41;;;;;;;5.30;2.50;;;;;;;;;;2315160;58;21115;-81
2022/08/01 06:06:08;;;;;;;4.10;2.70;;;;;;;;;;2314096;58;21655;-81
2022/08/01 06:08:35;;;;;;;3.37;2.17;;;;;;;;;;2313973;58;21048;-80
2022/08/01 06:11:02;;;;;;;5.70;2.33;;;;;;;;;;2314327;58;21127;-80
2022/08/01 06:13:29;;;;;;;4.85;2.72;;;;;;;;;;2314494;58;21143;-81
2022/08/01 06:15:57;;;;;;;7.90;2.50;;;;;;;;;;2552642;54;21115;-79
2022/08/01 06:18:24;;;;;;;3.80;2.45;;;;;;;;;;2314213;58;21607;-81
2022/08/01 06:20:51;;;;;;;6.57;3.00;;;;;;;;;;2314662;58;21064;-80
2022/08/01 06:23:18;;;;;;;4.28;3.20;;;;;;;;;;2314047;58;21095;-80
2022/08/01 06:25:45;;;;;;;3.10;2.30;;;;;;;;;;2552943;54;21020;-80
2022/08/01 06:28:12;;;;;;;8.20;3.35;;;;;;;;;;2313413;58;21167;-82
2022/08/01 06:30:39;;;;;;;4.35;2.50;;;;;;;;;;2314150;58;21035;-80
2022/08/01 06:33:06;;;;;;;6.97;3.00;;;;;;;;;;2313043;58;21087;-81
2022/08/01 06:35:33;;;;;;;5.28;2.37;;;;;;;;;;2551642;54;21555;-80
2022/08/01 06:38:00;;;;;;;6.05;3.08;;;;;;;;;;2314625;58;21107;-82
2022/08/01 06:40:27;;;;;;;6.72;2.50;;;;;;;;;;2554647;54;21032;-81
2022/08/01 06:42:54;;;;;;;5.62;2.58;;;;;;;;;;2554812;54;21091;-80
2022/08/01 06:45:22;;;;;;;7.03;2.87;;;;;;;;;;2553678;54;21103;-80
2022/08/01 06:47:49;;;;;;;7.45;3.17;;;;;;;;;;2314176;58;21070;-81
2022/08/01 06:50:16;;;;;;;7.57;3.05;;;;;;;;;;2313215;58;21665;-80
2022/08/01 06:52:43;;;;;;;11.45;2.53;;;;;;;;;;2314532;58;21075;-81
2022/08/01 06:55:10;;;;;;;4.37;2.55;;;;;;;;;;2554179;54;21048;-83
2022/08/01 06:57:37;;;;;;;6.50;3.00;;;;;;;;;;2314148;58;21059;-82
2022/08/01 07:00:07;;;;;;;7.12;2.55;;;;;;;;;;2314332;58;21126;-80
2022/08/01 07:02:36;;;;;;;7.28;2.50;;;;;;;;;;2315176;58;21087;-82
2022/08/01 07:05:03;;;;;;;6.25;2.50;;;;;;;;;;2554229;54;21056;-82
2022/08/01 07:07:30;;;;;;;8.25;2.65;;;;;;;;;;2314791;58;21670;-81
2022/08/01 07:09:57;;;;;;;9.10;2.85;;;;;;;;;;2555448;54;21548;-81
2022/08/01 07:12:24;;;;;;;10.63;3.58;;;;;;;;;;2314491;58;21120;-81
2022/08/01 07:14:51;;;;;;;6.95;2.65;;;;;;;;;;2314364;58;21080;-83
2022/08/01 07:17:20;;;;;;;11.05;3.00;;;;;;;;;;2313998;58;21060;-81
2022/08/01 07:19:47;;;;;;;12.82;3.80;;;;;;;;;;2314155;58;21151;-82
2022/08/01 07:22:14;;;;;;;6.82;2.72;;;;;;;;;;2314473;58;21663;-82
2022/08/01 07:24:41;;;;;;;6.90;2.83;;;;;;;;;;2554962;54;21055;-81
2022/08/01 07:27:08;;;;;;;7.80;3.33;;;;;;;;;;2314299;58;21110;-81
2022/08/01 07:29:35;;;;;;;9.85;2.70;;;;;;;;;;2314631;58;21144;-81
2022/08/01 07:32:02;;;;;;;7.93;3.00;;;;;;;;;;2314164;58;21133;-82
2022/08/01 07:34:29;;;;;;;7.85;3.30;;;;;;;;;;2553355;54;21048;-81
2022/08/01 07:36:56;;;;;;;5.45;2.58;;;;;;;;;;2552071;54;21052;-83
2022/08/01 07:39:23;;;;;;;12.05;3.33;;;;;;;;;;2551902;54;21066;-82
2022/08/01 07:41:50;;;;;;;6.70;2.47;;;;;;;;;;2313181;58;22294;-81
2022/08/01 07:44:17;;;;;;;7.82;3.90;;;;;;;;;;2312277;58;21052;-82
2022/08/01 07:46:44;;;;;;;7.43;3.03;;;;;;;;;;2551838;54;21115;-81
2022/08/01 07:49:11;;;;;;;12.55;2.95;;;;;;;;;;2313137;58;21068;-81
2022/08/01 07:51:38;;;;;;;9.32;3.08;;;;;;;;;;2312847;58;21123;-80
2022/08/01 07:54:06;;;;;;;9.70;3.00;;;;;;;;;;2551436;54;21072;-83
2022/08/01 07:56:33;;;;;;;8.07;2.83;;;;;;;;;;2551970;54;21123;-84
2022/08/01 07:59:00;;;;;;;14.90;3.45;;;;;;;;;;2313173;58;21135;-83
2022/08/01 08:01:27;;;;;;;13.77;3.22;;;;;;;;;;2312700;58;21092;-83
2022/08/01 08:03:55;;;;;;;7.62;3.00;;;;;;;;;;2313257;58;21056;-83
2022/08/01 08:06:22;;;;;;;8.02;3.05;;;;;;;;;;2312430;58;21055;-82
2022/08/01 08:08:49;;;;;;;10.90;3.55;;;;;;;;;;2312935;58;21139;-83
2022/08/01 08:11:16;;;;;;;8.48;3.37;;;;;;;;;;2312756;58;21104;-83
2022/08/01 08:13:43;;;;;;;10.68;3.30;;;;;;;;;;2312747;58;21099;-82
2022/08/01 08:16:10;;;;;;;11.88;3.33;;;;;;;;;;2311787;58;21055;-82
2022/08/01 08:18:38;;;;;;;12.60;3.25;;;;;;;;;;2312229;58;21587;-83
2022/08/01 08:21:05;;;;;;;8.73;2.80;;;;;;;;;;2552118;54;21111;-83
2022/08/01 08:26:17;;;;;;;10.15;3.15;;;;;;;;;;2311682;58;20988;-83
2022/08/01 08:28:44;;;;;;;10.70;3.65;;;;;;;;;;2312028;58;21056;-83
2022/08/01 08:31:11;;;;;;;12.50;2.90;;;;;;;;;;2551298;54;21680;-83
2022/08/01 08:33:38;;;;;;;10.70;2.95;;;;;;;;;;2552867;54;21079;-84
2022/08/01 08:36:05;;;;;;;9.75;3.22;;;;;;;;;;2314824;58;21048;-83
2022/08/01 08:38:32;;;;;;;9.60;3.20;;;;;;;;;;2313415;58;21503;-77
2022/08/01 08:41:00;;;;;;;11.45;3.72;;;;;;;;;;2311144;58;21048;-84
2022/08/01 08:43:27;;;;;;;8.38;3.08;;;;;;;;;;2315703;58;21075;-85
2022/08/01 08:45:54;;;;;;;5.97;3.10;;;;;;;;;;2555683;54;21587;-83
2022/08/01 08:48:22;;;;;;;7.43;3.10;;;;;;;;;;2317254;58;21133;-82
2022/08/01 08:50:50;;;;;;;10.75;3.12;;;;;;;;;;2317425;58;21055;-82
2022/08/01 08:53:18;;;;;;;6.60;2.80;;;;;;;;;;2317449;58;21655;-82
2022/08/01 08:55:45;;;;;;;7.03;2.53;;;;;;;;;;2556548;54;21575;-83
2022/08/01 08:58:13;;;;;;;120.25;14.90;;;;;;;;;;2312724;58;21151;-83
2022/08/01 09:00:41;;;;;;;12.15;3.33;;;;;;;;;;2314580;58;21120;-84
2022/08/01 09:03:08;;;;;;;10.18;3.37;;;;;;;;;;2315666;58;21682;-84
2022/08/01 09:05:35;;;;;;;9.70;3.37;;;;;;;;;;2314166;58;21055;-84
2022/08/01 09:08:02;;;;;;;9.52;3.92;;;;;;;;;;2313368;58;21059;-85
2022/08/01 09:10:29;;;;;;;14.23;5.05;;;;;;;;;;2312651;58;21107;-77
2022/08/01 09:13:10;;;;;;;10.55;4.25;;;;;;;;;;2312570;58;21060;-78
2022/08/01 09:15:44;;;;;;;12.43;4.00;;;;;;;;;;2312372;58;21135;-78
2022/08/01 09:18:27;;;;;;;13.90;3.65;;;;;;;;;;2313107;58;21112;-84
2022/08/01 09:21:08;;;;;;;6.17;3.00;;;;;;;;;;2313370;58;21096;-84
2022/08/01 09:23:38;;;;;;;9.80;2.80;;;;;;;;;;2311932;58;21068;-83
2022/08/01 09:26:05;;;;;;;15.32;3.80;;;;;;;;;;2312652;58;21146;-84
2022/08/01 09:28:32;;;;;;;7.15;3.20;;;;;;;;;;2552578;54;21044;-83
2022/08/01 09:31:00;;;;;;;7.75;3.10;;;;;;;;;;2313082;58;21119;-83
2022/08/01 09:33:29;;;;;;;8.77;3.58;;;;;;;;;;2552218;54;21147;-83
2022/08/01 09:35:57;;;;;;;31.73;7.28;;;;;;;;;;2312454;58;21565;-84
2022/08/01 09:38:26;;;;;;;37.00;6.28;;;;;;;;;;2552461;54;21047;-83
2022/08/01 09:40:55;;;;;;;7.18;2.40;;;;;;;;;;2312657;58;21076;-84
2022/08/01 09:43:22;;;;;;;84.53;13.95;;;;;;;;;;2553109;54;21591;-85
2022/08/01 09:45:49;;;;;;;17.65;3.42;;;;;;;;;;2312982;58;21048;-83
2022/08/01 09:48:16;;;;;;;16.55;3.85;;;;;;;;;;2313050;58;21108;-82
2022/08/01 09:50:45;;;;;;;29.33;4.82;;;;;;;;;;2311926;58;21064;-82
2022/08/01 09:53:12;;;;;;;14.45;2.85;;;;;;;;;;2551327;54;21052;-83
2022/08/01 09:55:39;;;;;;;9.02;1.80;;;;;;;;;;2312698;58;21115;-81
2022/08/01 09:58:06;;;;;;;6.03;2.00;;;;;;;;;;2312481;58;21047;-81
2022/08/01 10:00:34;;;;;;;4.87;1.60;;;;;;;;;;2313072;58;21155;-82
2022/08/01 10:03:01;;;;;;;9.15;2.65;;;;;;;;;;2552766;54;21070;-83
2022/08/01 10:05:32;;;;;;;8.23;2.12;;;;;;;;;;2552175;54;21131;-82
2022/08/01 10:08:01;;;;;;;7.43;2.30;;;;;;;;;;2312765;58;21044;-82
2022/08/01 10:10:28;;;;;;;7.75;2.50;;;;;;;;;;2312997;58;21219;-83
2022/08/01 10:12:56;;;;;;;8.38;2.35;;;;;;;;;;2312809;58;21043;-83
2022/08/01 10:15:24;;;;;;;11.68;2.15;;;;;;;;;;2312079;58;21080;-84
2022/08/01 10:17:53;;;;;;;7.37;1.80;;;;;;;;;;2312067;58;21627;-83
2022/08/01 10:20:21;;;;;;;8.85;2.20;;;;;;;;;;2312105;58;21056;-83
2022/08/01 10:22:50;;;;;;;6.95;2.20;;;;;;;;;;2311595;58;21075;-82
2022/08/01 10:25:18;;;;;;;9.85;2.42;;;;;;;;;;2311317;58;21648;-81
2022/08/01 10:27:46;;;;;;;10.15;2.47;;;;;;;;;;2312699;58;21353;-85
2022/08/01 10:30:14;;;;;;;5.40;2.10;;;;;;;;;;2552531;54;21060;-83
2022/08/01 10:32:42;;;;;;;10.68;2.50;;;;;;;;;;2552826;54;21663;-83
2022/08/01 10:35:14;;;;;;;8.57;1.95;;;;;;;;;;2312791;58;21055;-82
2022/08/01 10:37:41;;;;;;;8.95;3.00;;;;;;;;;;2552604;54;21088;-84
2022/08/01 10:40:09;;;;;;;9.40;2.80;;;;;;;;;;2312773;58;21617;-81
2022/08/01 10:42:36;;;;;;;7.05;1.83;;;;;;;;;;2312225;58;21064;-84
2022/08/01 10:45:04;;;;;;;8.02;1.90;;;;;;;;;;2312320;58;21048;-83
2022/08/01 10:47:39;;;;;;;8.65;2.45;;;;;;;;;;2311326;58;21588;-81
2022/08/01 10:50:08;;;;;;;8.10;2.28;;;;;;;;;;2552476;54;21079;-83
2022/08/01 10:52:35;;;;;;;4.75;1.92;;;;;;;;;;2552037;54;21094;-82
2022/08/01 10:55:06;;;;;;;11.48;3.62;;;;;;;;;;2311916;58;21068;-82
2022/08/01 10:57:43;;;;;;;8.88;2.30;;;;;;;;;;2311641;58;21075;-81
2022/08/01 11:00:16;;;;;;;10.95;2.50;;;;;;;;;;2312045;58;21670;-83
2022/08/01 11:02:57;;;;;;;7.47;2.12;;;;;;;;;;2311687;58;21143;-82
2022/08/01 11:05:25;;;;;;;5.18;1.70;;;;;;;;;;2311779;58;21120;-82
2022/08/01 11:07:53;;;;;;;6.22;1.98;;;;;;;;;;2312698;58;21242;-85
2022/08/01 11:10:25;;;;;;;3.15;1.55;;;;;;;;;;2312497;58;21107;-82
2022/08/01 11:12:52;;;;;;;7.20;1.80;;;;;;;;;;2551439;54;21103;-83
2022/08/01 11:18:01;;;;;;;10.25;2.08;;;;;;;;;;2356455;57;22089;-75
2022/08/01 11:20:30;;;;;;;4.97;1.75;;;;;;;;;;2349205;56;21097;-76
2022/08/01 11:23:28;;;;;;;6.78;2.17;;;;;;;;;;2463365;54;21134;-76
2022/08/01 11:26:09;;;;;;;9.38;1.98;;;;;;;;;;2540716;54;21050;-77
2022/08/01 11:28:36;;;;;;;10.23;2.12;;;;;;;;;;2540020;54;21043;-77
2022/08/01 11:31:21;;;;;;;8.35;1.62;;;;;;;;;;2303756;58;21110;-76
2022/08/01 11:33:51;;;;;;;6.30;1.65;;;;;;;;;;2303259;58;21422;-76
2022/08/01 11:36:20;;;;;;;7.10;1.60;;;;;;;;;;2301361;58;21571;-77
2022/08/01 11:38:48;;;;;;;8.23;2.05;;;;;;;;;;2301195;58;21643;-80
2022/08/01 11:41:16;;;;;;;11.63;2.17;;;;;;;;;;2300708;58;21082;-77
2022/08/01 11:43:56;;;;;;;7.70;2.10;;;;;;;;;;2301482;58;21541;-77
2022/08/01 11:46:42;;;;;;;6.68;1.80;;;;;;;;;;2301275;58;21054;-76
2022/08/01 11:49:25;;;;;;;7.35;1.98;;;;;;;;;;2302273;58;21544;-76
2022/08/01 11:51:58;;;;;;;7.95;1.70;;;;;;;;;;2300836;58;21648;-76
2022/08/01 11:54:27;;;;;;;10.40;2.35;;;;;;;;;;2537202;54;21059;-76
2022/08/01 11:56:56;;;;;;;6.97;2.05;;;;;;;;;;2300521;58;21050;-76
2022/08/01 11:59:23;;;;;;;7.25;1.42;;;;;;;;;;2302883;58;21055;-75
2022/08/01 12:01:50;;;;;;;8.38;2.03;;;;;;;;;;2301073;58;21054;-76
2022/08/01 12:04:17;;;;;;;6.43;1.73;;;;;;;;;;2299729;58;21118;-77
2022/08/01 12:06:44;;;;;;;6.00;1.65;;;;;;;;;;2301133;58;21142;-78
2022/08/01 12:09:21;;;;;;;10.77;2.03;;;;;;;;;;2298660;58;21094;-76
2022/08/01 12:11:48;;;;;;;7.43;1.77;;;;;;;;;;2298820;58;21126;-79
2022/08/01 12:14:22;;;;;;;3.90;1.37;;;;;;;;;;2300704;58;21125;-77
2022/08/01 12:16:50;;;;;;;7.12;1.87;;;;;;;;;;2301381;58;21573;-76
2022/08/01 12:19:20;;;;;;;12.65;1.80;;;;;;;;;;2301767;58;21062;-76
2022/08/01 12:22:05;;;;;;;5.65;1.55;;;;;;;;;;2539287;54;21121;-78
2022/08/01 12:24:32;;;;;;;5.85;1.42;;;;;;;;;;2302346;58;21081;-76
2022/08/01 12:26:59;;;;;;;5.20;1.70;;;;;;;;;;2300478;58;21118;-78
2022/08/01 12:29:33;;;;;;;5.72;2.22;;;;;;;;;;2301155;58;21585;-77
2022/08/01 12:32:00;;;;;;;6.40;2.03;;;;;;;;;;2301027;58;21062;-78
2022/08/01 12:37:06;;;;;;;5.93;1.92;;;;;;;;;;2352950;57;22157;-77
2022/08/01 12:39:34;;;;;;;5.28;1.55;;;;;;;;;;2346809;57;21076;-76
2022/08/01 12:42:07;;;;;;;3.92;1.23;;;;;;;;;;2364344;56;21038;-76
2022/08/01 12:44:35;;;;;;;5.05;1.40;;;;;;;;;;2374442;56;21620;-76
2022/08/01 12:47:03;;;;;;;8.65;2.00;;;;;;;;;;2374526;56;21043;-77
2022/08/01 12:49:30;;;;;;;4.20;1.80;;;;;;;;;;2628784;52;21097;-78
2022/08/01 12:51:58;;;;;;;10.15;1.73;;;;;;;;;;2629008;52;21027;-78
2022/08/01 12:54:25;;;;;;;7.97;1.27;;;;;;;;;;2629606;52;21142;-78
2022/08/01 12:56:53;;;;;;;8.75;1.67;;;;;;;;;;2627264;52;21027;-77
2022/08/01 12:59:25;;;;;;;7.47;1.70;;;;;;;;;;2375225;56;21282;-77
2022/08/01 13:01:53;;;;;;;6.00;2.03;;;;;;;;;;2374501;56;21616;-78
2022/08/01 13:04:20;;;;;;;6.78;1.55;;;;;;;;;;2629093;52;21141;-79
2022/08/01 13:06:48;;;;;;;5.95;1.60;;;;;;;;;;2627935;52;21031;-74
2022/08/01 13:09:15;;;;;;;8.43;1.40;;;;;;;;;;2374390;56;21067;-77
2022/08/01 13:11:43;;;;;;;7.07;1.62;;;;;;;;;;2628297;52;21075;-78
2022/08/01 13:14:10;;;;;;;5.93;1.45;;;;;;;;;;2628572;52;21362;-79
2022/08/01 13:16:47;;;;;;;2.75;1.20;;;;;;;;;;2374505;56;21153;-78
2022/08/01 13:19:15;;;;;;;8.13;1.73;;;;;;;;;;2629296;52;21197;-76
2022/08/01 13:24:30;;;;;;;5.35;1.55;;;;;;;;;;2354960;57;22571;-77
2022/08/01 13:26:59;;;;;;;7.20;1.85;;;;;;;;;;2345732;57;21049;-77
2022/08/01 13:29:33;;;;;;;6.90;1.62;;;;;;;;;;2592594;53;21120;-77
2022/08/01 13:32:01;;;;;;;6.35;1.52;;;;;;;;;;2363537;56;21023;-79
2022/08/01 13:34:31;;;;;;;7.68;1.52;;;;;;;;;;2627850;52;21043;-76
2022/08/01 13:36:58;;;;;;;3.95;1.40;;;;;;;;;;2371398;56;21038;-76
2022/08/01 13:39:41;;;;;;;2.83;1.10;;;;;;;;;;2374467;56;21130;-75
2022/08/01 13:42:08;;;;;;;5.50;1.33;;;;;;;;;;2373948;56;21051;-76
2022/08/01 13:44:35;;;;;;;5.82;1.30;;;;;;;;;;2374634;56;21039;-77
2022/08/01 13:47:03;;;;;;;3.62;1.33;;;;;;;;;;2626496;52;21141;-76
2022/08/01 13:49:30;;;;;;;4.37;1.33;;;;;;;;;;2372926;56;21109;-77
2022/08/01 13:51:57;;;;;;;6.15;1.27;;;;;;;;;;2371633;56;21116;-77
2022/08/01 13:54:24;;;;;;;4.47;1.23;;;;;;;;;;2374599;56;21042;-74
2022/08/01 13:56:52;;;;;;;4.80;1.23;;;;;;;;;;2626709;52;21019;-76
2022/08/01 13:59:19;;;;;;;5.45;1.33;;;;;;;;;;2627782;52;21039;-74
2022/08/01 14:01:46;;;;;;;7.40;1.37;;;;;;;;;;2375260;56;21035;-78
2022/08/01 14:04:14;;;;;;;8.25;1.67;;;;;;;;;;2628590;52;21549;-78
2022/08/01 14:06:41;;;;;;;5.32;1.25;;;;;;;;;;2373926;56;21381;-78
2022/08/01 14:09:08;;;;;;;4.75;1.40;;;;;;;;;;2374127;56;21764;-78
2022/08/01 14:11:35;;;;;;;3.40;1.65;;;;;;;;;;2627076;52;21479;-76
2022/08/01 14:14:02;;;;;;;5.75;1.45;;;;;;;;;;2373904;56;21101;-76
2022/08/01 14:16:30;;;;;;;4.25;1.40;;;;;;;;;;2373506;56;21102;-77
2022/08/01 14:18:57;;;;;;;7.15;1.70;;;;;;;;;;2373967;56;21062;-76
2022/08/01 14:21:24;;;;;;;7.80;2.00;;;;;;;;;;2627276;52;21039;-77
2022/08/01 14:23:51;;;;;;;6.97;1.30;;;;;;;;;;2626509;52;21063;-76
2022/08/01 14:26:18;;;;;;;6.10;1.65;;;;;;;;;;2372758;56;21094;-76
2022/08/01 14:28:45;;;;;;;5.80;1.92;;;;;;;;;;2372387;56;21039;-76
2022/08/01 14:31:12;;;;;;;4.25;1.55;;;;;;;;;;2373200;56;21063;-75
2022/08/01 14:33:39;;;;;;;4.62;1.33;;;;;;;;;;2627959;52;21043;-75
2022/08/01 14:36:06;;;;;;;4.07;1.25;;;;;;;;;;2371794;56;21055;-76
2022/08/01 14:38:33;;;;;;;8.48;1.65;;;;;;;;;;2626508;52;21552;-75
2022/08/01 14:41:03;;;;;;;4.18;1.20;;;;;;;;;;2372614;56;21086;-76
2022/08/01 14:43:31;;;;;;;5.82;1.30;;;;;;;;;;2372358;56;21050;-75
2022/08/01 14:45:58;;;;;;;5.53;1.37;;;;;;;;;;2371727;56;21689;-75
2022/08/01 14:48:25;;;;;;;4.75;1.92;;;;;;;;;;2372474;56;21051;-76
2022/08/01 14:50:52;;;;;;;7.87;1.37;;;;;;;;;;2372811;56;21154;-75
2022/08/01 14:53:19;;;;;;;6.50;1.67;;;;;;;;;;2373426;56;21047;-77
2022/08/01 14:55:47;;;;;;;11.05;1.62;;;;;;;;;;2372493;56;21628;-75
2022/08/01 14:58:14;;;;;;;8.38;1.23;;;;;;;;;;2371438;56;21059;-76